createdAt,value
2019-05-22T00:00:53.838Z,0.00
2019-05-22T00:01:53.796Z,0.00
2019-05-22T00:02:53.803Z,0.00
2019-05-22T00:03:53.797Z,0.00
2019-05-22T00:04:53.802Z,0.00
2019-05-22T00:05:53.826Z,0.00
2019-05-22T00:06:53.801Z,0.00
2019-05-22T00:07:53.798Z,0.00
2019-05-22T00:08:53.800Z,0.00
2019-05-22T00:09:53.799Z,0.00
2019-05-22T00:10:53.829Z,0.00
2019-05-22T00:11:53.802Z,0.00
2019-05-22T00:12:53.810Z,0.00
2019-05-22T00:13:53.797Z,0.00
2019-05-22T00:14:53.799Z,0.00
2019-05-22T00:15:53.832Z,0.00
2019-05-22T00:16:53.800Z,0.00
2019-05-22T00:17:53.800Z,0.00
2019-05-22T00:18:53.806Z,0.00
2019-05-22T00:19:53.805Z,0.00
2019-05-22T00:20:53.827Z,0.00
2019-05-22T00:21:53.800Z,0.00
2019-05-22T00:22:53.798Z,0.00
2019-05-22T00:23:53.798Z,0.00
2019-05-22T00:24:53.799Z,0.00
2019-05-22T00:25:53.826Z,0.00
2019-05-22T00:26:53.802Z,0.00
2019-05-22T00:27:53.798Z,0.00
2019-05-22T00:28:53.795Z,0.00
2019-05-22T00:29:53.799Z,0.00
2019-05-22T00:30:53.830Z,0.00
2019-05-22T00:31:53.797Z,0.00
2019-05-22T00:32:53.797Z,0.00
2019-05-22T00:33:53.804Z,0.00
2019-05-22T00:34:53.798Z,0.00
2019-05-22T00:35:53.840Z,0.00
2019-05-22T00:36:53.796Z,0.00
2019-05-22T00:37:53.798Z,0.00
2019-05-22T00:38:53.795Z,0.00
2019-05-22T00:39:53.798Z,0.00
2019-05-22T00:40:53.842Z,0.00
2019-05-22T00:41:53.802Z,0.00
2019-05-22T00:43:03.400Z,0.00
2019-05-22T00:43:53.798Z,0.00
2019-05-22T00:44:53.794Z,0.00
2019-05-22T00:45:53.832Z,0.00
2019-05-22T00:46:53.805Z,0.00
2019-05-22T00:47:53.799Z,0.00
2019-05-22T00:48:53.806Z,0.00
2019-05-22T00:49:53.800Z,0.00
2019-05-22T00:50:53.831Z,0.00
2019-05-22T00:51:53.824Z,0.00
2019-05-22T00:52:53.797Z,0.00
2019-05-22T00:53:53.804Z,0.00
2019-05-22T00:54:53.800Z,0.00
2019-05-22T00:55:53.805Z,0.00
2019-05-22T00:56:53.828Z,0.00
2019-05-22T00:57:53.799Z,0.00
2019-05-22T00:58:53.793Z,0.00
2019-05-22T00:59:54.515Z,0.00
2019-05-22T01:00:53.798Z,0.00
2019-05-22T01:01:53.827Z,0.00
2019-05-22T01:02:53.797Z,0.00
2019-05-22T01:03:53.796Z,0.00
2019-05-22T01:04:53.801Z,0.00
2019-05-22T01:05:53.803Z,0.00
2019-05-22T01:06:53.835Z,0.00
2019-05-22T01:07:53.797Z,0.00
2019-05-22T01:08:53.800Z,0.00
2019-05-22T01:09:53.801Z,0.00
2019-05-22T01:10:53.800Z,0.00
2019-05-22T01:11:53.826Z,0.00
2019-05-22T01:12:53.797Z,0.00
2019-05-22T01:13:53.796Z,0.00
2019-05-22T01:14:53.799Z,0.00
2019-05-22T01:15:53.800Z,0.00
2019-05-22T01:16:53.843Z,0.00
2019-05-22T01:17:53.802Z,0.00
2019-05-22T01:18:53.796Z,0.00
2019-05-22T01:19:53.844Z,0.00
2019-05-22T01:20:53.799Z,0.00
2019-05-22T01:21:53.820Z,0.00
2019-05-22T01:22:53.797Z,0.00
2019-05-22T01:23:53.792Z,0.00
2019-05-22T01:24:53.816Z,0.00
2019-05-22T01:25:53.792Z,0.00
2019-05-22T01:26:53.822Z,0.00
2019-05-22T01:27:53.832Z,0.00
2019-05-22T01:28:53.797Z,0.00
2019-05-22T01:29:53.810Z,0.00
2019-05-22T01:30:53.789Z,0.00
2019-05-22T01:31:54.509Z,0.00
2019-05-22T01:32:53.825Z,0.00
2019-05-22T01:33:53.795Z,0.00
2019-05-22T01:34:53.854Z,0.00
2019-05-22T01:35:53.794Z,0.00
2019-05-22T01:36:53.801Z,0.00
2019-05-22T01:37:53.822Z,0.00
2019-05-22T01:38:53.801Z,0.00
2019-05-22T01:39:53.802Z,0.00
2019-05-22T01:40:53.787Z,0.00
2019-05-22T01:41:53.787Z,0.00
2019-05-22T01:42:53.814Z,0.00
2019-05-22T01:43:53.811Z,0.00
2019-05-22T01:45:03.618Z,0.00
2019-05-22T01:45:53.792Z,0.00
2019-05-22T01:46:53.793Z,0.00
2019-05-22T01:47:53.812Z,0.00
2019-05-22T01:48:53.818Z,0.00
2019-05-22T01:49:53.800Z,0.00
2019-05-22T01:50:53.792Z,0.00
2019-05-22T01:51:53.790Z,0.00
2019-05-22T01:52:53.793Z,0.00
2019-05-22T01:53:54.003Z,0.00
2019-05-22T01:54:53.789Z,0.00
2019-05-22T01:55:53.788Z,0.00
2019-05-22T01:56:53.793Z,0.00
2019-05-22T01:57:53.797Z,0.00
2019-05-22T01:58:53.817Z,0.00
2019-05-22T01:59:53.782Z,0.00
2019-05-22T02:00:53.791Z,0.00
2019-05-22T02:01:53.786Z,0.00
2019-05-22T02:02:53.790Z,0.00
2019-05-22T02:03:53.825Z,0.00
2019-05-22T02:04:53.791Z,0.00
2019-05-22T02:05:53.791Z,0.00
2019-05-22T02:06:53.790Z,0.00
2019-05-22T02:07:53.780Z,0.00
2019-05-22T02:08:53.808Z,0.00
2019-05-22T02:09:53.811Z,0.00
2019-05-22T02:10:53.779Z,0.00
2019-05-22T02:11:53.781Z,0.00
2019-05-22T02:12:53.783Z,0.00
2019-05-22T02:13:53.785Z,0.00
2019-05-22T02:14:53.978Z,0.00
2019-05-22T02:15:53.779Z,0.00
2019-05-22T02:16:57.244Z,0.00
2019-05-22T02:17:56.497Z,0.00
2019-05-22T02:18:53.809Z,0.00
2019-05-22T02:19:53.779Z,0.00
2019-05-22T02:20:53.790Z,0.00
2019-05-22T02:21:53.782Z,0.00
2019-05-22T02:22:53.774Z,0.00
2019-05-22T02:23:53.802Z,0.00
2019-05-22T02:24:53.782Z,0.00
2019-05-22T02:25:53.794Z,0.00
2019-05-22T02:26:53.777Z,0.00
2019-05-22T02:27:53.774Z,0.00
2019-05-22T02:28:53.807Z,0.00
2019-05-22T02:29:53.806Z,0.00
2019-05-22T02:30:54.518Z,0.00
2019-05-22T02:31:55.595Z,0.00
2019-05-22T02:32:53.776Z,0.00
2019-05-22T02:33:53.776Z,0.00
2019-05-22T02:34:53.816Z,0.00
2019-05-22T02:35:53.778Z,0.00
2019-05-22T02:36:53.793Z,0.00
2019-05-22T02:37:53.775Z,0.00
2019-05-22T02:38:53.773Z,0.00
2019-05-22T02:39:53.805Z,0.00
2019-05-22T02:40:53.769Z,0.00
2019-05-22T02:41:53.770Z,0.00
2019-05-22T02:42:53.773Z,0.00
2019-05-22T02:43:53.781Z,0.00
2019-05-22T02:44:53.808Z,0.00
2019-05-22T02:45:53.770Z,0.00
2019-05-22T02:46:53.771Z,0.00
2019-05-22T02:47:53.774Z,0.00
2019-05-22T02:48:53.769Z,0.00
2019-05-22T02:49:53.796Z,0.00
2019-05-22T02:50:53.772Z,0.00
2019-05-22T02:51:53.766Z,0.00
2019-05-22T02:52:53.764Z,0.00
2019-05-22T02:53:53.766Z,0.00
2019-05-22T02:54:53.793Z,0.00
2019-05-22T02:55:53.777Z,0.00
2019-05-22T02:56:53.775Z,0.00
2019-05-22T02:57:53.765Z,0.00
2019-05-22T02:58:53.762Z,0.00
2019-05-22T02:59:53.802Z,0.00
2019-05-22T03:00:53.764Z,0.00
2019-05-22T03:01:53.766Z,0.00
2019-05-22T03:02:53.774Z,0.00
2019-05-22T03:03:53.754Z,0.00
2019-05-22T03:04:53.792Z,0.00
2019-05-22T03:05:53.789Z,0.00
2019-05-22T03:06:53.759Z,0.00
2019-05-22T03:07:53.762Z,0.00
2019-05-22T03:08:53.763Z,0.00
2019-05-22T03:09:53.757Z,0.00
2019-05-22T03:10:53.786Z,0.00
2019-05-22T03:11:53.758Z,0.00
2019-05-22T03:12:53.756Z,0.00
2019-05-22T03:13:53.755Z,0.00
2019-05-22T03:14:53.756Z,0.00
2019-05-22T03:15:53.782Z,0.00
2019-05-22T03:16:53.753Z,0.00
2019-05-22T03:17:53.753Z,0.00
2019-05-22T03:19:08.238Z,0.00
2019-05-22T03:19:53.756Z,0.00
2019-05-22T03:20:53.777Z,0.00
2019-05-22T03:21:53.754Z,0.00
2019-05-22T03:22:53.757Z,0.00
2019-05-22T03:23:53.750Z,0.00
2019-05-22T03:24:53.747Z,0.00
2019-05-22T03:25:53.776Z,0.00
2019-05-22T03:26:53.743Z,0.00
2019-05-22T03:27:53.747Z,0.00
2019-05-22T03:28:53.750Z,0.00
2019-05-22T03:29:53.745Z,5.63
2019-05-22T03:30:53.772Z,5.63
2019-05-22T03:31:53.775Z,5.63
2019-05-22T03:32:53.755Z,5.63
2019-05-22T03:33:53.789Z,5.63
2019-05-22T03:34:53.755Z,5.63
2019-05-22T03:35:53.753Z,5.63
2019-05-22T03:36:53.773Z,5.63
2019-05-22T03:37:53.740Z,5.63
2019-05-22T03:38:53.747Z,5.63
2019-05-22T03:39:53.739Z,5.63
2019-05-22T03:40:53.745Z,5.63
2019-05-22T03:41:53.772Z,5.63
2019-05-22T03:42:53.733Z,5.63
2019-05-22T03:43:53.742Z,11.25
2019-05-22T03:44:53.736Z,11.25
2019-05-22T03:45:53.773Z,11.25
2019-05-22T03:46:53.736Z,11.25
2019-05-22T03:47:53.745Z,11.25
2019-05-22T03:48:53.740Z,11.25
2019-05-22T03:49:53.730Z,11.25
2019-05-22T03:50:53.763Z,11.25
2019-05-22T03:51:53.727Z,11.25
2019-05-22T03:52:53.736Z,11.25
2019-05-22T03:53:53.726Z,11.25
2019-05-22T03:54:53.737Z,11.25
2019-05-22T03:55:53.764Z,11.25
2019-05-22T03:56:53.726Z,16.88
2019-05-22T03:57:53.731Z,16.88
2019-05-22T03:58:53.735Z,16.88
2019-05-22T03:59:53.724Z,16.88
2019-05-22T04:00:53.742Z,22.50
2019-05-22T04:01:53.754Z,22.50
2019-05-22T04:02:53.726Z,22.50
2019-05-22T04:03:53.724Z,22.50
2019-05-22T04:04:53.721Z,22.50
2019-05-22T04:05:53.730Z,22.50
2019-05-22T04:06:53.749Z,22.50
2019-05-22T04:07:53.729Z,22.50
2019-05-22T04:08:53.726Z,28.13
2019-05-22T04:09:53.726Z,28.13
2019-05-22T04:10:53.750Z,33.75
2019-05-22T04:11:53.763Z,33.75
2019-05-22T04:12:53.724Z,39.38
2019-05-22T04:13:53.721Z,45.00
2019-05-22T04:14:53.716Z,56.25
2019-05-22T04:15:53.714Z,67.50
2019-05-22T04:16:53.749Z,78.75
2019-05-22T04:17:53.718Z,90.00
2019-05-22T04:18:53.721Z,95.63
2019-05-22T04:19:53.717Z,101.25
2019-05-22T04:20:53.723Z,112.50
2019-05-22T04:21:53.756Z,112.50
2019-05-22T04:22:53.712Z,118.13
2019-05-22T04:23:53.715Z,123.75
2019-05-22T04:24:53.765Z,123.75
2019-05-22T04:25:53.744Z,129.38
2019-05-22T04:26:53.714Z,123.75
2019-05-22T04:27:53.708Z,129.38
2019-05-22T04:28:53.711Z,157.50
2019-05-22T04:29:53.712Z,151.88
2019-05-22T04:30:53.743Z,163.13
2019-05-22T04:31:53.721Z,163.13
2019-05-22T04:32:53.719Z,140.63
2019-05-22T04:33:53.712Z,129.38
2019-05-22T04:34:53.712Z,135.00
2019-05-22T04:35:53.740Z,140.63
2019-05-22T04:36:53.707Z,140.63
2019-05-22T04:37:53.706Z,140.63
2019-05-22T04:38:53.712Z,140.63
2019-05-22T04:39:53.718Z,106.88
2019-05-22T04:40:53.734Z,101.25
2019-05-22T04:41:53.724Z,95.63
2019-05-22T04:42:53.731Z,84.38
2019-05-22T04:43:53.709Z,78.75
2019-05-22T04:44:53.706Z,84.38
2019-05-22T04:45:53.734Z,73.13
2019-05-22T04:46:53.707Z,61.88
2019-05-22T04:47:53.712Z,61.88
2019-05-22T04:48:53.706Z,61.88
2019-05-22T04:50:06.697Z,67.50
2019-05-22T04:50:53.737Z,78.75
2019-05-22T04:51:53.704Z,84.38
2019-05-22T04:52:53.703Z,95.63
2019-05-22T04:53:53.707Z,95.63
2019-05-22T04:54:53.722Z,90.00
2019-05-22T04:55:53.735Z,84.38
2019-05-22T04:56:53.696Z,90.00
2019-05-22T04:57:53.701Z,90.00
2019-05-22T04:58:53.699Z,95.63
2019-05-22T04:59:53.698Z,90.00
2019-05-22T05:00:53.728Z,90.00
2019-05-22T05:01:53.705Z,95.63
2019-05-22T05:02:53.700Z,101.25
2019-05-22T05:03:53.700Z,112.50
2019-05-22T05:04:53.711Z,101.25
2019-05-22T05:05:53.767Z,90.00
2019-05-22T05:06:54.543Z,90.00
2019-05-22T05:07:53.701Z,90.00
2019-05-22T05:08:53.715Z,84.38
2019-05-22T05:09:53.712Z,84.38
2019-05-22T05:10:53.753Z,84.38
2019-05-22T05:11:53.721Z,78.75
2019-05-22T05:12:53.708Z,67.50
2019-05-22T05:13:54.549Z,67.50
2019-05-22T05:14:53.746Z,78.75
2019-05-22T05:15:53.721Z,67.50
2019-05-22T05:16:53.746Z,67.50
2019-05-22T05:17:53.759Z,67.50
2019-05-22T05:18:53.735Z,67.50
2019-05-22T05:19:56.077Z,73.13
2019-05-22T05:21:07.279Z,84.38
2019-05-22T05:21:56.093Z,95.63
2019-05-22T05:22:53.730Z,90.00
2019-05-22T05:23:57.356Z,84.38
2019-05-22T05:24:55.780Z,90.00
2019-05-22T05:25:53.714Z,95.63
2019-05-22T05:26:53.690Z,112.50
2019-05-22T05:27:53.697Z,112.50
2019-05-22T05:28:53.704Z,106.88
2019-05-22T05:29:53.715Z,118.13
2019-05-22T05:30:53.689Z,118.13
2019-05-22T05:31:53.693Z,135.00
2019-05-22T05:32:53.711Z,129.38
2019-05-22T05:33:53.689Z,118.13
2019-05-22T05:34:53.686Z,118.13
2019-05-22T05:35:53.737Z,135.00
2019-05-22T05:36:53.688Z,157.50
2019-05-22T05:37:53.686Z,163.13
2019-05-22T05:38:53.676Z,180.00
2019-05-22T05:39:53.714Z,185.63
2019-05-22T05:40:53.679Z,196.88
2019-05-22T05:41:53.676Z,208.13
2019-05-22T05:42:53.718Z,191.25
2019-05-22T05:43:53.683Z,202.50
2019-05-22T05:44:53.686Z,225.00
2019-05-22T05:45:53.714Z,213.75
2019-05-22T05:46:53.674Z,191.25
2019-05-22T05:47:53.678Z,191.25
2019-05-22T05:48:53.680Z,202.50
2019-05-22T05:49:53.673Z,230.63
2019-05-22T05:50:53.715Z,230.63
2019-05-22T05:51:53.674Z,253.13
2019-05-22T05:52:53.706Z,247.50
2019-05-22T05:53:53.673Z,225.00
2019-05-22T05:54:53.671Z,208.13
2019-05-22T05:55:53.705Z,208.13
2019-05-22T05:56:53.705Z,213.75
2019-05-22T05:57:53.694Z,241.88
2019-05-22T05:58:54.556Z,275.63
2019-05-22T05:59:54.549Z,286.88
2019-05-22T06:00:53.719Z,247.50
2019-05-22T06:01:53.696Z,247.50
2019-05-22T06:02:56.399Z,241.88
2019-05-22T06:03:53.684Z,253.13
2019-05-22T06:04:53.692Z,241.88
2019-05-22T06:05:53.714Z,230.63
2019-05-22T06:06:54.568Z,236.25
2019-05-22T06:07:53.688Z,208.13
2019-05-22T06:08:53.710Z,230.63
2019-05-22T06:09:53.690Z,241.88
2019-05-22T06:10:53.799Z,225.00
2019-05-22T06:11:53.691Z,219.38
2019-05-22T06:12:53.690Z,208.13
2019-05-22T06:13:53.720Z,196.88
2019-05-22T06:14:53.689Z,185.63
2019-05-22T06:15:53.671Z,191.25
2019-05-22T06:16:53.732Z,219.38
2019-05-22T06:17:53.689Z,213.75
2019-05-22T06:18:56.913Z,213.75
2019-05-22T06:19:53.696Z,253.13
2019-05-22T06:21:03.757Z,303.75
2019-05-22T06:21:53.715Z,388.13
2019-05-22T06:22:53.680Z,416.25
2019-05-22T06:23:53.693Z,483.75
2019-05-22T06:24:53.678Z,556.88
2019-05-22T06:25:53.684Z,613.13
2019-05-22T06:26:53.709Z,607.50
2019-05-22T06:27:53.687Z,590.63
2019-05-22T06:28:53.711Z,613.13
2019-05-22T06:29:53.683Z,568.13
2019-05-22T06:30:53.678Z,596.25
2019-05-22T06:31:53.713Z,618.75
2019-05-22T06:32:53.741Z,601.88
2019-05-22T06:33:53.675Z,540.00
2019-05-22T06:34:53.681Z,495.00
2019-05-22T06:35:54.566Z,495.00
2019-05-22T06:36:53.718Z,466.88
2019-05-22T06:37:56.550Z,472.50
2019-05-22T06:38:53.689Z,528.75
2019-05-22T06:39:53.718Z,489.38
2019-05-22T06:40:53.664Z,601.88
2019-05-22T06:41:53.664Z,601.88
2019-05-22T06:42:53.701Z,568.13
2019-05-22T06:43:53.668Z,573.75
2019-05-22T06:44:53.668Z,556.88
2019-05-22T06:45:53.668Z,517.50
2019-05-22T06:46:53.731Z,455.63
2019-05-22T06:47:53.668Z,416.25
2019-05-22T06:48:53.669Z,416.25
2019-05-22T06:49:53.708Z,421.88
2019-05-22T06:50:53.843Z,421.88
2019-05-22T06:51:53.697Z,455.63
2019-05-22T06:53:08.911Z,433.13
2019-05-22T06:53:53.673Z,528.75
2019-05-22T06:54:53.697Z,540.00
2019-05-22T06:55:53.675Z,579.38
2019-05-22T06:56:53.669Z,618.75
2019-05-22T06:57:53.705Z,495.00
2019-05-22T06:58:53.679Z,393.75
2019-05-22T07:00:11.472Z,371.25
2019-05-22T07:00:53.674Z,376.88
2019-05-22T07:02:00.977Z,360.00
2019-05-22T07:02:53.705Z,393.75
2019-05-22T07:03:53.677Z,382.50
2019-05-22T07:04:53.676Z,343.13
2019-05-22T07:05:53.678Z,382.50
2019-05-22T07:06:53.694Z,421.88
2019-05-22T07:07:53.709Z,455.63
2019-05-22T07:08:53.680Z,506.25
2019-05-22T07:09:53.675Z,517.50
2019-05-22T07:10:53.712Z,579.38
2019-05-22T07:11:53.677Z,658.13
2019-05-22T07:12:53.713Z,731.25
2019-05-22T07:13:53.684Z,776.25
2019-05-22T07:14:53.684Z,691.88
2019-05-22T07:15:53.688Z,596.25
2019-05-22T07:16:53.691Z,573.75
2019-05-22T07:17:53.726Z,500.63
2019-05-22T07:18:53.681Z,483.75
2019-05-22T07:19:53.688Z,545.63
2019-05-22T07:20:53.726Z,720.00
2019-05-22T07:21:53.690Z,815.63
2019-05-22T07:22:53.689Z,810.00
2019-05-22T07:23:53.717Z,669.38
2019-05-22T07:24:53.692Z,601.88
2019-05-22T07:25:53.696Z,686.25
2019-05-22T07:26:53.695Z,759.38
2019-05-22T07:27:53.713Z,843.75
2019-05-22T07:28:53.722Z,928.13
2019-05-22T07:29:53.702Z,798.75
2019-05-22T07:30:53.715Z,630.00
2019-05-22T07:31:53.697Z,562.50
2019-05-22T07:32:53.698Z,545.63
2019-05-22T07:33:53.726Z,618.75
2019-05-22T07:34:53.719Z,613.13
2019-05-22T07:36:09.323Z,607.50
2019-05-22T07:36:53.699Z,534.38
2019-05-22T07:37:53.705Z,540.00
2019-05-22T07:38:53.739Z,528.75
2019-05-22T07:39:53.709Z,421.88
2019-05-22T07:40:53.739Z,466.88
2019-05-22T07:41:53.708Z,635.63
2019-05-22T07:42:53.714Z,866.25
2019-05-22T07:43:53.806Z,1158.75
2019-05-22T07:44:53.740Z,1389.38
2019-05-22T07:45:53.792Z,1282.50
2019-05-22T07:46:53.709Z,1164.38
2019-05-22T07:47:53.770Z,1091.25
2019-05-22T07:48:53.715Z,883.13
2019-05-22T07:49:53.753Z,832.50
2019-05-22T07:50:53.735Z,765.00
2019-05-22T07:52:01.291Z,990.00
2019-05-22T07:52:53.722Z,1080.00
2019-05-22T07:53:53.726Z,1035.00
2019-05-22T07:54:53.756Z,1029.38
2019-05-22T07:55:53.775Z,933.75
2019-05-22T07:56:53.729Z,990.00
2019-05-22T07:57:53.729Z,1164.38
2019-05-22T07:58:53.735Z,1029.38
2019-05-22T07:59:53.736Z,1023.75
2019-05-22T08:00:53.762Z,950.63
2019-05-22T08:01:53.754Z,883.13
2019-05-22T08:02:53.754Z,956.25
2019-05-22T08:03:53.769Z,905.63
2019-05-22T08:04:53.755Z,798.75
2019-05-22T08:05:53.780Z,742.50
2019-05-22T08:06:53.740Z,950.63
2019-05-22T08:07:53.752Z,1198.13
2019-05-22T08:08:53.757Z,1265.63
2019-05-22T08:09:53.774Z,1231.88
2019-05-22T08:10:53.779Z,1299.38
2019-05-22T08:11:53.785Z,1271.25
2019-05-22T08:12:53.753Z,1035.00
2019-05-22T08:13:53.751Z,860.63
2019-05-22T08:14:53.759Z,826.88
2019-05-22T08:15:53.760Z,928.13
2019-05-22T08:16:53.792Z,1023.75
2019-05-22T08:17:53.821Z,855.00
2019-05-22T08:18:53.764Z,742.50
2019-05-22T08:19:53.774Z,630.00
2019-05-22T08:20:53.781Z,556.88
2019-05-22T08:22:06.146Z,568.13
2019-05-22T08:22:53.768Z,590.63
2019-05-22T08:23:53.794Z,613.13
2019-05-22T08:24:53.778Z,658.13
2019-05-22T08:25:53.777Z,658.13
2019-05-22T08:26:55.095Z,736.88
2019-05-22T08:27:53.781Z,714.38
2019-05-22T08:28:53.782Z,646.88
2019-05-22T08:29:56.826Z,652.50
2019-05-22T08:30:53.835Z,596.25
2019-05-22T08:31:53.816Z,613.13
2019-05-22T08:32:53.796Z,675.00
2019-05-22T08:33:53.803Z,945.00
2019-05-22T08:34:53.791Z,1215.00
2019-05-22T08:35:53.795Z,1198.13
2019-05-22T08:36:53.819Z,1068.75
2019-05-22T08:37:53.795Z,1113.75
2019-05-22T08:38:53.795Z,1080.00
2019-05-22T08:39:53.796Z,984.38
2019-05-22T08:40:53.817Z,1001.25
2019-05-22T08:41:53.828Z,1012.50
2019-05-22T08:42:53.810Z,1046.25
2019-05-22T08:44:14.492Z,1029.38
2019-05-22T08:44:53.806Z,894.38
2019-05-22T08:45:53.817Z,939.38
2019-05-22T08:46:53.843Z,1023.75
2019-05-22T08:47:53.807Z,731.25
2019-05-22T08:48:53.820Z,618.75
2019-05-22T08:49:53.815Z,624.38
2019-05-22T08:50:53.817Z,691.88
2019-05-22T08:51:53.840Z,748.13
2019-05-22T08:52:53.816Z,736.88
2019-05-22T08:53:53.823Z,855.00
2019-05-22T08:54:53.836Z,1063.13
2019-05-22T08:55:53.826Z,1153.13
2019-05-22T08:56:53.850Z,1220.63
2019-05-22T08:57:53.829Z,1361.25
2019-05-22T08:58:53.836Z,1552.50
2019-05-22T08:59:53.833Z,1496.25
2019-05-22T09:00:53.835Z,1276.88
2019-05-22T09:01:53.886Z,1175.63
2019-05-22T09:02:53.875Z,1018.13
2019-05-22T09:03:53.878Z,894.38
2019-05-22T09:04:54.574Z,770.63
2019-05-22T09:05:53.840Z,635.63
2019-05-22T09:06:53.846Z,686.25
2019-05-22T09:07:53.877Z,624.38
2019-05-22T09:08:53.856Z,506.25
2019-05-22T09:09:53.883Z,472.50
2019-05-22T09:10:53.849Z,427.50
2019-05-22T09:11:53.875Z,450.00
2019-05-22T09:12:53.890Z,461.25
2019-05-22T09:13:53.872Z,450.00
2019-05-22T09:14:53.866Z,472.50
2019-05-22T09:15:53.892Z,461.25
2019-05-22T09:16:53.861Z,472.50
2019-05-22T09:17:53.897Z,495.00
2019-05-22T09:18:53.887Z,556.88
2019-05-22T09:19:53.869Z,556.88
2019-05-22T09:20:53.873Z,511.88
2019-05-22T09:21:53.877Z,506.25
2019-05-22T09:22:53.929Z,523.13
2019-05-22T09:23:53.877Z,579.38
2019-05-22T09:24:53.887Z,585.00
2019-05-22T09:25:53.874Z,500.63
2019-05-22T09:26:53.932Z,455.63
2019-05-22T09:27:53.884Z,478.13
2019-05-22T09:28:53.917Z,500.63
2019-05-22T09:29:53.913Z,540.00
2019-05-22T09:30:53.885Z,607.50
2019-05-22T09:31:53.885Z,697.50
2019-05-22T09:32:53.914Z,770.63
2019-05-22T09:33:53.883Z,770.63
2019-05-22T09:34:53.885Z,793.13
2019-05-22T09:35:53.896Z,866.25
2019-05-22T09:36:53.907Z,866.25
2019-05-22T09:37:53.948Z,883.13
2019-05-22T09:38:53.895Z,894.38
2019-05-22T09:39:53.899Z,798.75
2019-05-22T09:40:53.891Z,798.75
2019-05-22T09:41:53.917Z,826.88
2019-05-22T09:42:53.904Z,838.13
2019-05-22T09:43:53.938Z,798.75
2019-05-22T09:44:53.900Z,793.13
2019-05-22T09:45:53.901Z,714.38
2019-05-22T09:46:53.918Z,675.00
2019-05-22T09:47:53.901Z,630.00
2019-05-22T09:48:53.941Z,748.13
2019-05-22T09:49:53.906Z,821.25
2019-05-22T09:50:53.900Z,776.25
2019-05-22T09:51:54.574Z,641.25
2019-05-22T09:52:57.475Z,686.25
2019-05-22T09:53:53.954Z,669.38
2019-05-22T09:54:54.577Z,607.50
2019-05-22T09:55:53.923Z,540.00
2019-05-22T09:56:53.918Z,579.38
2019-05-22T09:57:53.919Z,596.25
2019-05-22T09:58:53.962Z,568.13
2019-05-22T09:59:53.955Z,573.75
2019-05-22T10:00:54.553Z,742.50
2019-05-22T10:01:53.923Z,590.63
2019-05-22T10:02:53.926Z,461.25
2019-05-22T10:03:54.057Z,433.13
2019-05-22T10:04:55.925Z,444.38
2019-05-22T10:05:54.094Z,466.88
2019-05-22T10:06:53.924Z,438.75
2019-05-22T10:08:00.736Z,421.88
2019-05-22T10:08:54.784Z,511.88
2019-05-22T10:09:53.933Z,601.88
2019-05-22T10:10:53.937Z,624.38
2019-05-22T10:11:53.942Z,596.25
2019-05-22T10:12:53.938Z,562.50
2019-05-22T10:13:54.582Z,495.00
2019-05-22T10:14:53.986Z,433.13
2019-05-22T10:15:53.935Z,421.88
2019-05-22T10:16:54.533Z,410.63
2019-05-22T10:17:53.939Z,399.38
2019-05-22T10:18:53.963Z,371.25
2019-05-22T10:19:53.941Z,399.38
2019-05-22T10:20:53.938Z,461.25
2019-05-22T10:21:53.944Z,523.13
2019-05-22T10:22:53.943Z,641.25
2019-05-22T10:23:53.977Z,810.00
2019-05-22T10:25:12.055Z,1125.00
2019-05-22T10:25:53.945Z,1310.63
2019-05-22T10:26:53.951Z,1006.88
2019-05-22T10:27:53.946Z,742.50
2019-05-22T10:28:53.992Z,590.63
2019-05-22T10:29:54.000Z,545.63
2019-05-22T10:30:55.529Z,534.38
2019-05-22T10:31:53.951Z,590.63
2019-05-22T10:32:53.939Z,708.75
2019-05-22T10:33:54.678Z,855.00
2019-05-22T10:34:57.594Z,950.63
2019-05-22T10:35:53.957Z,939.38
2019-05-22T10:36:53.964Z,888.75
2019-05-22T10:37:53.985Z,725.63
2019-05-22T10:38:53.972Z,635.63
2019-05-22T10:39:53.995Z,601.88
2019-05-22T10:40:57.944Z,613.13
2019-05-22T10:41:53.963Z,562.50
2019-05-22T10:42:53.969Z,585.00
2019-05-22T10:43:53.998Z,630.00
2019-05-22T10:44:53.966Z,697.50
2019-05-22T10:45:53.992Z,708.75
2019-05-22T10:46:53.971Z,691.88
2019-05-22T10:47:53.970Z,646.88
2019-05-22T10:48:54.001Z,618.75
2019-05-22T10:49:53.973Z,618.75
2019-05-22T10:50:53.978Z,579.38
2019-05-22T10:51:53.974Z,540.00
2019-05-22T10:52:55.110Z,523.13
2019-05-22T10:53:53.984Z,506.25
2019-05-22T10:54:56.000Z,478.13
2019-05-22T10:55:53.976Z,455.63
2019-05-22T10:56:53.980Z,444.38
2019-05-22T10:57:53.998Z,489.38
2019-05-22T10:58:53.987Z,618.75
2019-05-22T10:59:54.015Z,697.50
2019-05-22T11:00:53.987Z,590.63
2019-05-22T11:01:53.992Z,551.25
2019-05-22T11:02:53.991Z,641.25
2019-05-22T11:03:53.983Z,669.38
2019-05-22T11:04:54.033Z,658.13
2019-05-22T11:06:06.595Z,742.50
2019-05-22T11:06:53.999Z,776.25
2019-05-22T11:07:53.996Z,720.00
2019-05-22T11:08:53.997Z,810.00
2019-05-22T11:09:54.025Z,883.13
2019-05-22T11:10:53.991Z,939.38
2019-05-22T11:11:53.990Z,1018.13
2019-05-22T11:12:53.992Z,1158.75
2019-05-22T11:14:01.521Z,1198.13
2019-05-22T11:14:54.023Z,1080.00
2019-05-22T11:15:54.032Z,1046.25
2019-05-22T11:16:54.005Z,1023.75
2019-05-22T11:17:54.003Z,928.13
2019-05-22T11:18:53.997Z,804.38
2019-05-22T11:19:54.028Z,770.63
2019-05-22T11:20:54.013Z,753.75
2019-05-22T11:21:56.998Z,731.25
2019-05-22T11:22:54.007Z,691.88
2019-05-22T11:23:54.006Z,675.00
2019-05-22T11:24:54.075Z,663.75
2019-05-22T11:25:54.017Z,641.25
2019-05-22T11:26:54.020Z,590.63
2019-05-22T11:27:54.013Z,579.38
2019-05-22T11:28:54.012Z,523.13
2019-05-22T11:29:54.047Z,517.50
2019-05-22T11:30:54.032Z,489.38
2019-05-22T11:31:54.019Z,478.13
2019-05-22T11:32:54.020Z,534.38
2019-05-22T11:33:54.016Z,506.25
2019-05-22T11:34:54.066Z,444.38
2019-05-22T11:35:54.599Z,433.13
2019-05-22T11:36:54.034Z,455.63
2019-05-22T11:37:54.048Z,478.13
2019-05-22T11:38:54.023Z,444.38
2019-05-22T11:39:54.033Z,461.25
2019-05-22T11:40:54.053Z,579.38
2019-05-22T11:41:54.023Z,765.00
2019-05-22T11:42:54.027Z,686.25
2019-05-22T11:43:54.028Z,607.50
2019-05-22T11:44:54.039Z,545.63
2019-05-22T11:45:54.057Z,556.88
2019-05-22T11:46:54.033Z,630.00
2019-05-22T11:47:54.032Z,787.50
2019-05-22T11:48:54.029Z,945.00
2019-05-22T11:49:54.149Z,905.63
2019-05-22T11:50:54.060Z,793.13
2019-05-22T11:51:54.034Z,883.13
2019-05-22T11:52:54.043Z,911.25
2019-05-22T11:54:07.842Z,815.63
2019-05-22T11:54:54.049Z,748.13
2019-05-22T11:55:56.766Z,821.25
2019-05-22T11:56:54.041Z,978.75
2019-05-22T11:57:54.047Z,922.50
2019-05-22T11:58:54.055Z,995.63
2019-05-22T11:59:54.061Z,1231.88
2019-05-22T12:00:54.081Z,1518.75
2019-05-22T12:01:54.079Z,1518.75
2019-05-22T12:02:54.052Z,1395.00
2019-05-22T12:03:54.051Z,1288.13
2019-05-22T12:04:54.063Z,1119.38
2019-05-22T12:05:55.020Z,1023.75
2019-05-22T12:06:54.162Z,1018.13
2019-05-22T12:07:54.063Z,1057.50
2019-05-22T12:08:54.057Z,1136.25
2019-05-22T12:09:54.070Z,1046.25
2019-05-22T12:10:54.098Z,950.63
2019-05-22T12:11:54.069Z,939.38
2019-05-22T12:12:54.065Z,860.63
2019-05-22T12:13:54.070Z,663.75
2019-05-22T12:14:54.072Z,556.88
2019-05-22T12:15:54.110Z,534.38
2019-05-22T12:16:54.075Z,590.63
2019-05-22T12:17:54.082Z,675.00
2019-05-22T12:18:54.096Z,646.88
2019-05-22T12:19:54.101Z,551.25
2019-05-22T12:20:54.115Z,545.63
2019-05-22T12:21:54.150Z,691.88
2019-05-22T12:22:54.092Z,781.88
2019-05-22T12:23:54.089Z,798.75
2019-05-22T12:24:54.096Z,703.13
2019-05-22T12:25:54.123Z,675.00
2019-05-22T12:26:54.094Z,635.63
2019-05-22T12:27:54.099Z,635.63
2019-05-22T12:28:54.097Z,798.75
2019-05-22T12:29:54.102Z,1102.50
2019-05-22T12:30:54.136Z,1091.25
2019-05-22T12:31:54.099Z,1203.75
2019-05-22T12:32:54.122Z,1434.38
2019-05-22T12:33:54.111Z,1563.75
2019-05-22T12:34:54.126Z,1653.75
2019-05-22T12:35:54.135Z,1912.50
2019-05-22T12:36:54.128Z,2165.63
2019-05-22T12:37:54.123Z,2216.25
2019-05-22T12:38:54.116Z,2311.88
2019-05-22T12:39:54.116Z,2379.38
2019-05-22T12:40:54.159Z,2238.75
2019-05-22T12:41:54.171Z,2131.88
2019-05-22T12:42:54.135Z,1991.25